Terminal Aerodrome Forecast
Issued by NWS

Home | Current Version | Previous Version | Text Only | Print | Product List | Glossary On
Versions: 1 2 3 4 5 6 7 8 9 10 11 12 13 14 15 16 17
000
FTUS46 KSTO 222328
TAFSMF
TAF
KSMF 222328Z 2300/2324 VRB04KT P6SM BKN200
     FM230800 VRB03KT 1/2SM FG OVC002
     FM231200 VRB03KT 1/4SM FG OVC001
     FM231800 33004KT 2SM BR OVC004
     FM231900 32004KT 4SM BR SCT080 BKN150
     FM232100 14004KT P6SM VCSH SCT080 OVC150=

USA.gov is the U.S. government's official web portal to all federal, state and local government web resources and services.